sensor_id;sensor_type;location;lat;lon;timestamp;P1;durP1;ratioP1;P2;durP2;ratioP2
9459;SDS011;4768;42.664;23.240;2023-07-13T00:00:01;4.43;;;3.55;;
9459;SDS011;4768;42.664;23.240;2023-07-13T00:02:31;5.17;;;3.20;;
9459;SDS011;4768;42.664;23.240;2023-07-13T00:04:58;4.30;;;3.17;;
9459;SDS011;4768;42.664;23.240;2023-07-13T00:07:25;3.73;;;2.77;;
9459;SDS011;4768;42.664;23.240;2023-07-13T00:09:52;3.73;;;2.73;;
9459;SDS011;4768;42.664;23.240;2023-07-13T00:12:23;3.43;;;2.90;;
9459;SDS011;4768;42.664;23.240;2023-07-13T00:14:51;3.97;;;3.13;;
9459;SDS011;4768;42.664;23.240;2023-07-13T00:17:19;4.43;;;3.00;;
9459;SDS011;4768;42.664;23.240;2023-07-13T00:19:46;2.93;;;2.57;;
9459;SDS011;4768;42.664;23.240;2023-07-13T00:22:13;3.93;;;2.60;;
9459;SDS011;4768;42.664;23.240;2023-07-13T00:24:40;4.93;;;2.57;;
9459;SDS011;4768;42.664;23.240;2023-07-13T00:27:07;3.30;;;2.80;;
9459;SDS011;4768;42.664;23.240;2023-07-13T00:29:34;3.67;;;2.90;;
9459;SDS011;4768;42.664;23.240;2023-07-13T00:32:01;6.47;;;2.83;;
9459;SDS011;4768;42.664;23.240;2023-07-13T00:34:30;3.97;;;2.67;;
9459;SDS011;4768;42.664;23.240;2023-07-13T00:36:57;3.27;;;2.40;;
9459;SDS011;4768;42.664;23.240;2023-07-13T00:39:24;2.83;;;2.37;;
9459;SDS011;4768;42.664;23.240;2023-07-13T00:41:51;3.33;;;2.53;;
9459;SDS011;4768;42.664;23.240;2023-07-13T00:44:18;2.70;;;2.40;;
9459;SDS011;4768;42.664;23.240;2023-07-13T00:46:46;5.17;;;3.00;;
9459;SDS011;4768;42.664;23.240;2023-07-13T00:49:14;2.97;;;2.40;;
9459;SDS011;4768;42.664;23.240;2023-07-13T00:51:44;6.07;;;2.73;;
9459;SDS011;4768;42.664;23.240;2023-07-13T00:54:15;4.40;;;3.07;;
9459;SDS011;4768;42.664;23.240;2023-07-13T00:56:45;5.87;;;3.60;;
9459;SDS011;4768;42.664;23.240;2023-07-13T00:59:15;4.63;;;3.47;;
9459;SDS011;4768;42.664;23.240;2023-07-13T01:01:44;4.33;;;3.60;;
9459;SDS011;4768;42.664;23.240;2023-07-13T01:04:11;5.67;;;3.73;;
9459;SDS011;4768;42.664;23.240;2023-07-13T01:06:38;4.83;;;3.60;;
9459;SDS011;4768;42.664;23.240;2023-07-13T01:09:07;16.77;;;4.00;;
9459;SDS011;4768;42.664;23.240;2023-07-13T01:11:35;6.23;;;4.20;;
9459;SDS011;4768;42.664;23.240;2023-07-13T01:14:02;5.50;;;3.93;;
9459;SDS011;4768;42.664;23.240;2023-07-13T01:16:30;4.87;;;4.00;;
9459;SDS011;4768;42.664;23.240;2023-07-13T01:18:59;6.40;;;4.63;;
9459;SDS011;4768;42.664;23.240;2023-07-13T01:21:28;7.87;;;4.33;;
9459;SDS011;4768;42.664;23.240;2023-07-13T01:23:56;7.67;;;4.50;;
9459;SDS011;4768;42.664;23.240;2023-07-13T01:26:23;6.63;;;4.03;;
9459;SDS011;4768;42.664;23.240;2023-07-13T01:28:49;5.97;;;4.23;;
9459;SDS011;4768;42.664;23.240;2023-07-13T01:31:16;4.50;;;3.83;;
9459;SDS011;4768;42.664;23.240;2023-07-13T01:33:43;4.87;;;4.07;;
9459;SDS011;4768;42.664;23.240;2023-07-13T01:36:10;7.57;;;4.50;;
9459;SDS011;4768;42.664;23.240;2023-07-13T01:38:41;5.17;;;4.20;;
9459;SDS011;4768;42.664;23.240;2023-07-13T01:41:07;6.53;;;4.70;;
9459;SDS011;4768;42.664;23.240;2023-07-13T01:43:34;4.90;;;3.97;;
9459;SDS011;4768;42.664;23.240;2023-07-13T01:46:01;4.10;;;3.70;;
9459;SDS011;4768;42.664;23.240;2023-07-13T01:48:28;7.10;;;4.10;;
9459;SDS011;4768;42.664;23.240;2023-07-13T01:50:54;4.20;;;3.37;;
9459;SDS011;4768;42.664;23.240;2023-07-13T01:53:24;5.37;;;3.93;;
9459;SDS011;4768;42.664;23.240;2023-07-13T01:55:53;4.70;;;3.63;;
9459;SDS011;4768;42.664;23.240;2023-07-13T01:58:19;4.87;;;3.20;;
9459;SDS011;4768;42.664;23.240;2023-07-13T02:00:47;6.93;;;3.40;;
9459;SDS011;4768;42.664;23.240;2023-07-13T02:03:15;4.37;;;3.17;;
9459;SDS011;4768;42.664;23.240;2023-07-13T02:05:43;3.20;;;2.90;;
9459;SDS011;4768;42.664;23.240;2023-07-13T02:08:10;4.73;;;2.97;;
9459;SDS011;4768;42.664;23.240;2023-07-13T02:10:37;6.13;;;3.60;;
9459;SDS011;4768;42.664;23.240;2023-07-13T02:13:06;4.80;;;3.40;;
9459;SDS011;4768;42.664;23.240;2023-07-13T02:15:33;4.07;;;3.17;;
9459;SDS011;4768;42.664;23.240;2023-07-13T02:18:00;4.93;;;4.00;;
9459;SDS011;4768;42.664;23.240;2023-07-13T02:20:28;4.37;;;3.97;;
9459;SDS011;4768;42.664;23.240;2023-07-13T02:22:55;4.40;;;3.90;;
9459;SDS011;4768;42.664;23.240;2023-07-13T02:25:22;6.20;;;3.93;;
9459;SDS011;4768;42.664;23.240;2023-07-13T02:27:50;4.43;;;3.93;;
9459;SDS011;4768;42.664;23.240;2023-07-13T02:30:19;8.07;;;3.73;;
9459;SDS011;4768;42.664;23.240;2023-07-13T02:32:45;4.03;;;3.63;;
9459;SDS011;4768;42.664;23.240;2023-07-13T02:35:12;6.17;;;4.20;;
9459;SDS011;4768;42.664;23.240;2023-07-13T02:37:39;6.57;;;3.97;;
9459;SDS011;4768;42.664;23.240;2023-07-13T02:40:07;4.60;;;3.93;;
9459;SDS011;4768;42.664;23.240;2023-07-13T02:42:35;4.97;;;3.70;;
9459;SDS011;4768;42.664;23.240;2023-07-13T02:45:01;8.00;;;3.87;;
9459;SDS011;4768;42.664;23.240;2023-07-13T02:47:31;6.10;;;4.50;;
9459;SDS011;4768;42.664;23.240;2023-07-13T02:49:58;5.50;;;4.17;;
9459;SDS011;4768;42.664;23.240;2023-07-13T02:52:25;4.87;;;4.10;;
9459;SDS011;4768;42.664;23.240;2023-07-13T02:54:52;5.93;;;3.83;;
9459;SDS011;4768;42.664;23.240;2023-07-13T02:57:18;5.97;;;4.17;;
9459;SDS011;4768;42.664;23.240;2023-07-13T02:59:45;4.53;;;4.13;;
9459;SDS011;4768;42.664;23.240;2023-07-13T03:02:12;6.03;;;4.00;;
9459;SDS011;4768;42.664;23.240;2023-07-13T03:04:40;4.43;;;3.50;;
9459;SDS011;4768;42.664;23.240;2023-07-13T03:07:07;5.07;;;3.53;;
9459;SDS011;4768;42.664;23.240;2023-07-13T03:09:34;3.97;;;3.57;;
9459;SDS011;4768;42.664;23.240;2023-07-13T03:12:01;5.53;;;3.93;;
9459;SDS011;4768;42.664;23.240;2023-07-13T03:14:28;5.03;;;3.80;;
9459;SDS011;4768;42.664;23.240;2023-07-13T03:16:55;6.23;;;3.57;;
9459;SDS011;4768;42.664;23.240;2023-07-13T03:19:22;4.47;;;3.70;;
9459;SDS011;4768;42.664;23.240;2023-07-13T03:21:50;6.13;;;4.30;;
9459;SDS011;4768;42.664;23.240;2023-07-13T03:24:17;3.93;;;3.53;;
9459;SDS011;4768;42.664;23.240;2023-07-13T03:26:43;4.47;;;3.67;;
9459;SDS011;4768;42.664;23.240;2023-07-13T03:29:10;4.70;;;4.20;;
9459;SDS011;4768;42.664;23.240;2023-07-13T03:31:37;6.27;;;3.93;;
9459;SDS011;4768;42.664;23.240;2023-07-13T03:34:04;6.20;;;4.00;;
9459;SDS011;4768;42.664;23.240;2023-07-13T03:36:31;5.57;;;4.10;;
9459;SDS011;4768;42.664;23.240;2023-07-13T03:39:00;8.47;;;4.20;;
9459;SDS011;4768;42.664;23.240;2023-07-13T03:41:28;6.30;;;4.10;;
9459;SDS011;4768;42.664;23.240;2023-07-13T03:43:55;5.63;;;3.77;;
9459;SDS011;4768;42.664;23.240;2023-07-13T03:46:22;5.70;;;4.10;;
9459;SDS011;4768;42.664;23.240;2023-07-13T03:48:49;5.70;;;4.43;;
9459;SDS011;4768;42.664;23.240;2023-07-13T03:51:16;6.53;;;4.47;;
9459;SDS011;4768;42.664;23.240;2023-07-13T03:53:44;7.23;;;4.33;;
9459;SDS011;4768;42.664;23.240;2023-07-13T03:56:13;5.57;;;4.20;;
9459;SDS011;4768;42.664;23.240;2023-07-13T03:58:41;5.67;;;4.53;;
9459;SDS011;4768;42.664;23.240;2023-07-13T04:01:09;7.57;;;4.83;;
9459;SDS011;4768;42.664;23.240;2023-07-13T04:03:37;5.07;;;4.57;;
9459;SDS011;4768;42.664;23.240;2023-07-13T04:06:05;6.43;;;5.10;;
9459;SDS011;4768;42.664;23.240;2023-07-13T04:08:34;5.57;;;4.10;;
9459;SDS011;4768;42.664;23.240;2023-07-13T04:11:02;6.40;;;4.40;;
9459;SDS011;4768;42.664;23.240;2023-07-13T04:13:32;7.90;;;4.80;;
9459;SDS011;4768;42.664;23.240;2023-07-13T04:16:00;10.53;;;4.20;;
9459;SDS011;4768;42.664;23.240;2023-07-13T04:18:27;5.73;;;3.47;;
9459;SDS011;4768;42.664;23.240;2023-07-13T04:20:53;6.07;;;4.13;;
9459;SDS011;4768;42.664;23.240;2023-07-13T04:23:20;8.23;;;5.37;;
9459;SDS011;4768;42.664;23.240;2023-07-13T04:25:47;6.63;;;4.53;;
9459;SDS011;4768;42.664;23.240;2023-07-13T04:28:19;6.77;;;5.57;;
9459;SDS011;4768;42.664;23.240;2023-07-13T04:30:48;7.03;;;5.43;;
9459;SDS011;4768;42.664;23.240;2023-07-13T04:33:15;7.03;;;5.47;;
9459;SDS011;4768;42.664;23.240;2023-07-13T04:35:42;7.37;;;5.53;;
9459;SDS011;4768;42.664;23.240;2023-07-13T04:38:11;8.47;;;5.50;;
9459;SDS011;4768;42.664;23.240;2023-07-13T04:40:40;6.15;;;5.30;;
9459;SDS011;4768;42.664;23.240;2023-07-13T04:43:06;6.75;;;4.85;;
9459;SDS011;4768;42.664;23.240;2023-07-13T04:45:34;7.40;;;5.40;;
9459;SDS011;4768;42.664;23.240;2023-07-13T04:48:02;8.25;;;6.50;;
9459;SDS011;4768;42.664;23.240;2023-07-13T04:50:29;6.65;;;5.95;;
9459;SDS011;4768;42.664;23.240;2023-07-13T04:52:56;10.18;;;6.63;;
9459;SDS011;4768;42.664;23.240;2023-07-13T04:55:23;18.10;;;6.90;;
9459;SDS011;4768;42.664;23.240;2023-07-13T04:57:50;9.02;;;6.55;;
9459;SDS011;4768;42.664;23.240;2023-07-13T05:00:17;12.73;;;7.30;;
9459;SDS011;4768;42.664;23.240;2023-07-13T05:02:45;10.75;;;7.65;;
9459;SDS011;4768;42.664;23.240;2023-07-13T05:05:13;10.32;;;7.15;;
9459;SDS011;4768;42.664;23.240;2023-07-13T05:07:40;9.73;;;7.03;;
9459;SDS011;4768;42.664;23.240;2023-07-13T05:10:07;13.13;;;7.45;;
9459;SDS011;4768;42.664;23.240;2023-07-13T05:12:35;11.25;;;7.05;;
9459;SDS011;4768;42.664;23.240;2023-07-13T05:15:02;10.55;;;7.50;;
9459;SDS011;4768;42.664;23.240;2023-07-13T05:17:29;11.30;;;7.00;;
9459;SDS011;4768;42.664;23.240;2023-07-13T05:19:56;9.10;;;6.60;;
9459;SDS011;4768;42.664;23.240;2023-07-13T05:22:24;8.88;;;6.85;;
9459;SDS011;4768;42.664;23.240;2023-07-13T05:24:51;10.25;;;7.00;;
9459;SDS011;4768;42.664;23.240;2023-07-13T05:27:17;10.55;;;6.85;;
9459;SDS011;4768;42.664;23.240;2023-07-13T05:29:44;7.10;;;6.40;;
9459;SDS011;4768;42.664;23.240;2023-07-13T05:32:11;8.80;;;6.63;;
9459;SDS011;4768;42.664;23.240;2023-07-13T05:34:38;12.57;;;7.57;;
9459;SDS011;4768;42.664;23.240;2023-07-13T05:37:05;10.80;;;7.72;;
9459;SDS011;4768;42.664;23.240;2023-07-13T05:39:33;11.75;;;7.35;;
9459;SDS011;4768;42.664;23.240;2023-07-13T05:41:59;9.52;;;7.15;;
9459;SDS011;4768;42.664;23.240;2023-07-13T05:44:27;14.73;;;8.15;;
9459;SDS011;4768;42.664;23.240;2023-07-13T05:46:54;12.65;;;7.82;;
9459;SDS011;4768;42.664;23.240;2023-07-13T05:49:21;9.63;;;7.95;;
9459;SDS011;4768;42.664;23.240;2023-07-13T05:51:48;9.75;;;7.78;;
9459;SDS011;4768;42.664;23.240;2023-07-13T05:54:15;12.00;;;8.43;;
9459;SDS011;4768;42.664;23.240;2023-07-13T05:56:43;10.27;;;8.07;;
9459;SDS011;4768;42.664;23.240;2023-07-13T05:59:10;12.27;;;8.85;;
9459;SDS011;4768;42.664;23.240;2023-07-13T06:01:36;8.85;;;7.18;;
9459;SDS011;4768;42.664;23.240;2023-07-13T06:04:03;9.98;;;7.28;;
9459;SDS011;4768;42.664;23.240;2023-07-13T06:06:30;10.88;;;7.35;;
9459;SDS011;4768;42.664;23.240;2023-07-13T06:08:57;15.40;;;8.35;;
9459;SDS011;4768;42.664;23.240;2023-07-13T06:11:25;10.65;;;7.40;;
9459;SDS011;4768;42.664;23.240;2023-07-13T06:13:56;10.52;;;6.90;;
9459;SDS011;4768;42.664;23.240;2023-07-13T06:16:23;10.52;;;6.90;;
9459;SDS011;4768;42.664;23.240;2023-07-13T06:18:50;10.27;;;6.85;;
9459;SDS011;4768;42.664;23.240;2023-07-13T06:21:17;8.43;;;7.03;;
9459;SDS011;4768;42.664;23.240;2023-07-13T06:23:46;7.90;;;6.38;;
9459;SDS011;4768;42.664;23.240;2023-07-13T06:26:14;10.32;;;7.13;;
9459;SDS011;4768;42.664;23.240;2023-07-13T06:28:41;8.57;;;7.65;;
9459;SDS011;4768;42.664;23.240;2023-07-13T06:31:09;12.50;;;7.90;;
9459;SDS011;4768;42.664;23.240;2023-07-13T06:33:38;11.05;;;8.25;;
9459;SDS011;4768;42.664;23.240;2023-07-13T06:36:05;13.02;;;7.88;;
9459;SDS011;4768;42.664;23.240;2023-07-13T06:38:33;11.40;;;7.68;;
9459;SDS011;4768;42.664;23.240;2023-07-13T06:41:00;13.13;;;9.18;;
9459;SDS011;4768;42.664;23.240;2023-07-13T06:43:26;13.52;;;8.45;;
9459;SDS011;4768;42.664;23.240;2023-07-13T06:45:55;11.05;;;8.10;;
9459;SDS011;4768;42.664;23.240;2023-07-13T06:48:23;12.00;;;8.40;;
9459;SDS011;4768;42.664;23.240;2023-07-13T06:50:50;14.40;;;9.35;;
9459;SDS011;4768;42.664;23.240;2023-07-13T06:53:18;16.42;;;9.20;;
9459;SDS011;4768;42.664;23.240;2023-07-13T06:55:46;14.25;;;9.15;;
9459;SDS011;4768;42.664;23.240;2023-07-13T06:58:14;11.52;;;8.45;;
9459;SDS011;4768;42.664;23.240;2023-07-13T07:00:41;9.48;;;6.90;;
9459;SDS011;4768;42.664;23.240;2023-07-13T07:03:08;8.52;;;7.20;;
9459;SDS011;4768;42.664;23.240;2023-07-13T07:05:37;11.55;;;7.82;;
9459;SDS011;4768;42.664;23.240;2023-07-13T07:08:03;16.52;;;8.80;;
9459;SDS011;4768;42.664;23.240;2023-07-13T07:10:30;13.10;;;8.30;;
9459;SDS011;4768;42.664;23.240;2023-07-13T07:12:57;12.68;;;8.07;;
9459;SDS011;4768;42.664;23.240;2023-07-13T07:15:24;11.05;;;8.43;;
9459;SDS011;4768;42.664;23.240;2023-07-13T07:17:52;11.13;;;7.80;;
9459;SDS011;4768;42.664;23.240;2023-07-13T07:20:18;15.30;;;8.15;;
9459;SDS011;4768;42.664;23.240;2023-07-13T07:22:47;13.10;;;8.50;;
9459;SDS011;4768;42.664;23.240;2023-07-13T07:25:15;12.05;;;8.38;;
9459;SDS011;4768;42.664;23.240;2023-07-13T07:27:42;11.27;;;7.65;;
9459;SDS011;4768;42.664;23.240;2023-07-13T07:30:09;12.48;;;8.15;;
9459;SDS011;4768;42.664;23.240;2023-07-13T07:32:36;15.85;;;9.25;;
9459;SDS011;4768;42.664;23.240;2023-07-13T07:35:03;14.05;;;8.20;;
9459;SDS011;4768;42.664;23.240;2023-07-13T07:37:31;10.18;;;7.90;;
9459;SDS011;4768;42.664;23.240;2023-07-13T07:39:59;11.93;;;8.90;;
9459;SDS011;4768;42.664;23.240;2023-07-13T07:42:26;14.85;;;7.95;;
9459;SDS011;4768;42.664;23.240;2023-07-13T07:44:52;10.30;;;8.50;;
9459;SDS011;4768;42.664;23.240;2023-07-13T07:47:19;11.63;;;8.07;;
9459;SDS011;4768;42.664;23.240;2023-07-13T07:49:46;11.50;;;7.72;;
9459;SDS011;4768;42.664;23.240;2023-07-13T07:52:12;14.77;;;8.27;;
9459;SDS011;4768;42.664;23.240;2023-07-13T07:54:39;12.32;;;8.18;;
9459;SDS011;4768;42.664;23.240;2023-07-13T07:57:07;12.35;;;8.48;;
9459;SDS011;4768;42.664;23.240;2023-07-13T07:59:35;8.60;;;6.65;;
9459;SDS011;4768;42.664;23.240;2023-07-13T08:02:03;10.25;;;8.10;;
9459;SDS011;4768;42.664;23.240;2023-07-13T08:04:30;14.52;;;7.93;;
9459;SDS011;4768;42.664;23.240;2023-07-13T08:06:57;12.65;;;7.95;;
9459;SDS011;4768;42.664;23.240;2023-07-13T08:09:24;12.48;;;7.35;;
9459;SDS011;4768;42.664;23.240;2023-07-13T08:11:50;11.45;;;7.40;;
9459;SDS011;4768;42.664;23.240;2023-07-13T08:14:19;7.78;;;6.97;;
9459;SDS011;4768;42.664;23.240;2023-07-13T08:16:45;9.52;;;7.05;;
9459;SDS011;4768;42.664;23.240;2023-07-13T08:19:12;14.48;;;7.28;;
9459;SDS011;4768;42.664;23.240;2023-07-13T08:21:38;10.15;;;6.88;;
9459;SDS011;4768;42.664;23.240;2023-07-13T08:24:07;9.82;;;6.72;;
9459;SDS011;4768;42.664;23.240;2023-07-13T08:26:34;13.65;;;6.95;;
9459;SDS011;4768;42.664;23.240;2023-07-13T08:29:01;10.27;;;7.32;;
9459;SDS011;4768;42.664;23.240;2023-07-13T08:31:29;7.20;;;6.18;;
9459;SDS011;4768;42.664;23.240;2023-07-13T08:33:56;8.70;;;6.80;;
9459;SDS011;4768;42.664;23.240;2023-07-13T08:36:23;11.48;;;6.70;;
9459;SDS011;4768;42.664;23.240;2023-07-13T08:38:49;13.00;;;7.10;;
9459;SDS011;4768;42.664;23.240;2023-07-13T08:41:17;8.50;;;6.55;;
9459;SDS011;4768;42.664;23.240;2023-07-13T08:43:45;9.65;;;6.78;;
9459;SDS011;4768;42.664;23.240;2023-07-13T08:46:15;11.90;;;6.80;;
9459;SDS011;4768;42.664;23.240;2023-07-13T08:48:47;7.13;;;6.35;;
9459;SDS011;4768;42.664;23.240;2023-07-13T08:51:21;11.93;;;6.70;;
9459;SDS011;4768;42.664;23.240;2023-07-13T08:53:55;9.77;;;7.00;;
9459;SDS011;4768;42.664;23.240;2023-07-13T08:56:25;11.40;;;6.88;;
9459;SDS011;4768;42.664;23.240;2023-07-13T08:58:55;7.70;;;6.25;;
9459;SDS011;4768;42.664;23.240;2023-07-13T09:01:24;10.52;;;6.70;;
9459;SDS011;4768;42.664;23.240;2023-07-13T09:04:02;10.88;;;6.85;;
9459;SDS011;4768;42.664;23.240;2023-07-13T09:06:42;9.18;;;6.75;;
9459;SDS011;4768;42.664;23.240;2023-07-13T09:09:19;10.27;;;6.85;;
9459;SDS011;4768;42.664;23.240;2023-07-13T09:11:56;7.28;;;6.50;;
9459;SDS011;4768;42.664;23.240;2023-07-13T09:14:37;12.93;;;6.55;;
9459;SDS011;4768;42.664;23.240;2023-07-13T09:17:11;9.18;;;6.85;;
9459;SDS011;4768;42.664;23.240;2023-07-13T09:19:42;8.52;;;5.88;;
9459;SDS011;4768;42.664;23.240;2023-07-13T09:22:13;9.00;;;6.35;;
9459;SDS011;4768;42.664;23.240;2023-07-13T09:24:50;9.38;;;4.70;;
9459;SDS011;4768;42.664;23.240;2023-07-13T09:27:23;9.20;;;6.03;;
9459;SDS011;4768;42.664;23.240;2023-07-13T09:29:56;5.75;;;4.35;;
9459;SDS011;4768;42.664;23.240;2023-07-13T09:32:30;6.45;;;3.50;;
9459;SDS011;4768;42.664;23.240;2023-07-13T09:35:00;8.43;;;3.88;;
9459;SDS011;4768;42.664;23.240;2023-07-13T09:37:28;8.63;;;3.78;;
9459;SDS011;4768;42.664;23.240;2023-07-13T09:39:58;4.10;;;3.38;;
9459;SDS011;4768;42.664;23.240;2023-07-13T09:42:29;5.22;;;3.40;;
9459;SDS011;4768;42.664;23.240;2023-07-13T09:44:59;5.55;;;4.00;;
9459;SDS011;4768;42.664;23.240;2023-07-13T09:47:28;5.28;;;3.55;;
9459;SDS011;4768;42.664;23.240;2023-07-13T09:49:58;5.65;;;3.47;;
9459;SDS011;4768;42.664;23.240;2023-07-13T09:52:27;5.20;;;4.10;;
9459;SDS011;4768;42.664;23.240;2023-07-13T09:55:11;4.47;;;3.35;;
9459;SDS011;4768;42.664;23.240;2023-07-13T09:57:50;6.35;;;3.40;;
9459;SDS011;4768;42.664;23.240;2023-07-13T10:00:21;5.30;;;3.75;;
9459;SDS011;4768;42.664;23.240;2023-07-13T10:02:57;7.47;;;3.50;;
9459;SDS011;4768;42.664;23.240;2023-07-13T10:05:27;7.38;;;3.22;;
9459;SDS011;4768;42.664;23.240;2023-07-13T10:07:55;5.05;;;3.78;;
9459;SDS011;4768;42.664;23.240;2023-07-13T10:10:22;8.90;;;3.92;;
9459;SDS011;4768;42.664;23.240;2023-07-13T10:12:49;5.78;;;3.50;;
9459;SDS011;4768;42.664;23.240;2023-07-13T10:15:18;8.60;;;3.92;;
9459;SDS011;4768;42.664;23.240;2023-07-13T10:17:46;8.10;;;3.70;;
9459;SDS011;4768;42.664;23.240;2023-07-13T10:20:15;5.65;;;3.83;;
9459;SDS011;4768;42.664;23.240;2023-07-13T10:22:44;6.95;;;3.97;;
9459;SDS011;4768;42.664;23.240;2023-07-13T10:25:18;7.10;;;3.60;;
9459;SDS011;4768;42.664;23.240;2023-07-13T10:27:49;7.68;;;3.70;;
9459;SDS011;4768;42.664;23.240;2023-07-13T10:30:19;5.93;;;4.03;;
9459;SDS011;4768;42.664;23.240;2023-07-13T10:32:50;5.18;;;3.65;;
9459;SDS011;4768;42.664;23.240;2023-07-13T10:35:19;5.30;;;3.63;;
9459;SDS011;4768;42.664;23.240;2023-07-13T10:37:49;3.65;;;3.33;;
9459;SDS011;4768;42.664;23.240;2023-07-13T10:40:19;6.25;;;3.67;;
9459;SDS011;4768;42.664;23.240;2023-07-13T10:42:51;5.93;;;3.78;;
9459;SDS011;4768;42.664;23.240;2023-07-13T10:45:22;5.22;;;3.83;;
9459;SDS011;4768;42.664;23.240;2023-07-13T10:47:51;5.80;;;4.22;;
9459;SDS011;4768;42.664;23.240;2023-07-13T10:50:22;4.55;;;3.65;;
9459;SDS011;4768;42.664;23.240;2023-07-13T10:52:53;4.28;;;3.40;;
9459;SDS011;4768;42.664;23.240;2023-07-13T10:55:31;7.70;;;4.13;;
9459;SDS011;4768;42.664;23.240;2023-07-13T10:58:03;6.22;;;3.92;;
9459;SDS011;4768;42.664;23.240;2023-07-13T11:00:42;6.05;;;3.85;;
9459;SDS011;4768;42.664;23.240;2023-07-13T11:03:13;7.68;;;4.10;;
9459;SDS011;4768;42.664;23.240;2023-07-13T11:05:43;9.82;;;4.00;;
9459;SDS011;4768;42.664;23.240;2023-07-13T11:08:19;6.25;;;4.00;;
9459;SDS011;4768;42.664;23.240;2023-07-13T11:10:51;7.43;;;4.28;;
9459;SDS011;4768;42.664;23.240;2023-07-13T11:13:39;5.38;;;4.00;;
9459;SDS011;4768;42.664;23.240;2023-07-13T11:16:32;4.15;;;3.72;;
9459;SDS011;4768;42.664;23.240;2023-07-13T11:22:22;5.47;;;4.32;;
9459;SDS011;4768;42.664;23.240;2023-07-13T11:24:59;4.38;;;3.60;;
9459;SDS011;4768;42.664;23.240;2023-07-13T11:27:33;6.70;;;3.72;;
9459;SDS011;4768;42.664;23.240;2023-07-13T11:30:22;7.22;;;4.45;;
9459;SDS011;4768;42.664;23.240;2023-07-13T11:33:09;6.68;;;4.07;;
9459;SDS011;4768;42.664;23.240;2023-07-13T11:35:41;5.68;;;4.10;;
9459;SDS011;4768;42.664;23.240;2023-07-13T11:38:14;5.15;;;3.47;;
9459;SDS011;4768;42.664;23.240;2023-07-13T11:40:46;6.63;;;3.88;;
9459;SDS011;4768;42.664;23.240;2023-07-13T11:43:15;5.03;;;3.60;;
9459;SDS011;4768;42.664;23.240;2023-07-13T11:45:42;6.25;;;3.83;;
9459;SDS011;4768;42.664;23.240;2023-07-13T11:48:22;8.50;;;4.03;;
9459;SDS011;4768;42.664;23.240;2023-07-13T11:50:55;4.15;;;3.45;;
9459;SDS011;4768;42.664;23.240;2023-07-13T11:53:26;6.88;;;3.95;;
9459;SDS011;4768;42.664;23.240;2023-07-13T11:55:56;4.72;;;4.00;;
9459;SDS011;4768;42.664;23.240;2023-07-13T11:58:24;6.07;;;3.92;;
9459;SDS011;4768;42.664;23.240;2023-07-13T12:00:53;4.15;;;3.40;;
9459;SDS011;4768;42.664;23.240;2023-07-13T12:03:22;8.93;;;3.63;;
9459;SDS011;4768;42.664;23.240;2023-07-13T12:05:57;4.15;;;3.50;;
9459;SDS011;4768;42.664;23.240;2023-07-13T12:08:26;5.13;;;4.00;;
9459;SDS011;4768;42.664;23.240;2023-07-13T12:11:01;5.68;;;3.70;;
9459;SDS011;4768;42.664;23.240;2023-07-13T12:13:35;4.38;;;3.35;;
9459;SDS011;4768;42.664;23.240;2023-07-13T12:16:08;5.25;;;3.80;;
9459;SDS011;4768;42.664;23.240;2023-07-13T12:18:39;6.82;;;3.78;;
9459;SDS011;4768;42.664;23.240;2023-07-13T12:21:10;8.30;;;3.45;;
9459;SDS011;4768;42.664;23.240;2023-07-13T12:23:39;4.47;;;3.45;;
9459;SDS011;4768;42.664;23.240;2023-07-13T12:26:10;8.30;;;3.58;;
9459;SDS011;4768;42.664;23.240;2023-07-13T12:28:38;5.88;;;3.50;;
9459;SDS011;4768;42.664;23.240;2023-07-13T12:31:19;4.85;;;3.75;;
9459;SDS011;4768;42.664;23.240;2023-07-13T12:33:55;11.80;;;4.07;;
9459;SDS011;4768;42.664;23.240;2023-07-13T12:36:23;5.63;;;3.88;;
9459;SDS011;4768;42.664;23.240;2023-07-13T12:38:50;5.25;;;3.45;;
9459;SDS011;4768;42.664;23.240;2023-07-13T12:41:19;5.43;;;3.47;;
9459;SDS011;4768;42.664;23.240;2023-07-13T12:43:45;5.82;;;3.60;;
9459;SDS011;4768;42.664;23.240;2023-07-13T12:46:17;9.45;;;3.33;;
9459;SDS011;4768;42.664;23.240;2023-07-13T12:48:47;5.25;;;3.42;;
9459;SDS011;4768;42.664;23.240;2023-07-13T12:51:15;6.03;;;3.60;;
9459;SDS011;4768;42.664;23.240;2023-07-13T12:53:43;8.23;;;3.65;;
9459;SDS011;4768;42.664;23.240;2023-07-13T12:56:16;6.13;;;3.63;;
9459;SDS011;4768;42.664;23.240;2023-07-13T12:58:48;6.13;;;3.72;;
9459;SDS011;4768;42.664;23.240;2023-07-13T13:01:19;4.40;;;3.28;;
9459;SDS011;4768;42.664;23.240;2023-07-13T13:03:49;6.68;;;3.42;;
9459;SDS011;4768;42.664;23.240;2023-07-13T13:06:21;5.38;;;3.13;;
9459;SDS011;4768;42.664;23.240;2023-07-13T13:08:51;5.18;;;3.08;;
9459;SDS011;4768;42.664;23.240;2023-07-13T13:11:22;6.43;;;3.38;;
9459;SDS011;4768;42.664;23.240;2023-07-13T13:13:51;8.13;;;3.38;;
9459;SDS011;4768;42.664;23.240;2023-07-13T13:16:20;7.38;;;3.80;;
9459;SDS011;4768;42.664;23.240;2023-07-13T13:18:48;7.95;;;3.63;;
9459;SDS011;4768;42.664;23.240;2023-07-13T13:21:16;7.45;;;3.40;;
9459;SDS011;4768;42.664;23.240;2023-07-13T13:23:43;6.25;;;3.30;;
9459;SDS011;4768;42.664;23.240;2023-07-13T13:26:11;5.57;;;3.35;;
9459;SDS011;4768;42.664;23.240;2023-07-13T13:28:42;7.88;;;4.30;;
9459;SDS011;4768;42.664;23.240;2023-07-13T13:31:10;5.80;;;3.60;;
9459;SDS011;4768;42.664;23.240;2023-07-13T13:33:38;4.70;;;3.40;;
9459;SDS011;4768;42.664;23.240;2023-07-13T13:36:08;6.57;;;3.80;;
9459;SDS011;4768;42.664;23.240;2023-07-13T13:38:42;5.07;;;3.50;;
9459;SDS011;4768;42.664;23.240;2023-07-13T13:41:09;5.07;;;3.72;;
9459;SDS011;4768;42.664;23.240;2023-07-13T13:43:38;7.75;;;3.80;;
9459;SDS011;4768;42.664;23.240;2023-07-13T13:46:09;5.05;;;3.72;;
9459;SDS011;4768;42.664;23.240;2023-07-13T13:48:40;6.15;;;3.55;;
9459;SDS011;4768;42.664;23.240;2023-07-13T13:51:12;5.43;;;4.00;;
9459;SDS011;4768;42.664;23.240;2023-07-13T13:53:41;5.60;;;3.60;;
9459;SDS011;4768;42.664;23.240;2023-07-13T13:56:08;4.65;;;3.40;;
9459;SDS011;4768;42.664;23.240;2023-07-13T13:58:36;5.10;;;3.50;;
9459;SDS011;4768;42.664;23.240;2023-07-13T14:01:02;6.10;;;3.65;;
9459;SDS011;4768;42.664;23.240;2023-07-13T14:03:34;5.18;;;3.22;;
9459;SDS011;4768;42.664;23.240;2023-07-13T14:06:01;6.05;;;3.72;;
9459;SDS011;4768;42.664;23.240;2023-07-13T14:08:27;9.13;;;4.10;;
9459;SDS011;4768;42.664;23.240;2023-07-13T14:10:55;4.88;;;3.47;;
9459;SDS011;4768;42.664;23.240;2023-07-13T14:13:25;7.40;;;3.78;;
9459;SDS011;4768;42.664;23.240;2023-07-13T14:15:54;9.85;;;3.50;;
9459;SDS011;4768;42.664;23.240;2023-07-13T14:18:21;6.43;;;3.65;;
9459;SDS011;4768;42.664;23.240;2023-07-13T14:20:50;5.88;;;3.17;;
9459;SDS011;4768;42.664;23.240;2023-07-13T14:23:17;6.90;;;3.40;;
9459;SDS011;4768;42.664;23.240;2023-07-13T14:25:44;6.60;;;4.32;;
9459;SDS011;4768;42.664;23.240;2023-07-13T14:28:16;4.55;;;4.05;;
9459;SDS011;4768;42.664;23.240;2023-07-13T14:30:46;5.95;;;3.58;;
9459;SDS011;4768;42.664;23.240;2023-07-13T14:33:13;7.07;;;3.58;;
9459;SDS011;4768;42.664;23.240;2023-07-13T14:35:39;4.75;;;4.00;;
9459;SDS011;4768;42.664;23.240;2023-07-13T14:38:09;6.63;;;4.25;;
9459;SDS011;4768;42.664;23.240;2023-07-13T14:40:37;7.55;;;3.75;;
9459;SDS011;4768;42.664;23.240;2023-07-13T14:43:04;7.57;;;4.38;;
9459;SDS011;4768;42.664;23.240;2023-07-13T14:45:33;6.28;;;3.78;;
9459;SDS011;4768;42.664;23.240;2023-07-13T14:48:02;6.13;;;3.78;;
9459;SDS011;4768;42.664;23.240;2023-07-13T14:50:31;4.22;;;3.50;;
9459;SDS011;4768;42.664;23.240;2023-07-13T14:53:00;9.38;;;4.00;;
9459;SDS011;4768;42.664;23.240;2023-07-13T14:55:28;6.57;;;3.92;;
9459;SDS011;4768;42.664;23.240;2023-07-13T14:57:55;5.25;;;4.07;;
9459;SDS011;4768;42.664;23.240;2023-07-13T15:00:22;4.90;;;3.80;;
9459;SDS011;4768;42.664;23.240;2023-07-13T15:02:50;9.48;;;3.63;;
9459;SDS011;4768;42.664;23.240;2023-07-13T15:05:21;4.43;;;3.28;;
9459;SDS011;4768;42.664;23.240;2023-07-13T15:07:49;6.57;;;3.63;;
9459;SDS011;4768;42.664;23.240;2023-07-13T15:10:17;8.63;;;3.85;;